KINL/INL METAR and TAF weather

Enter ICAO airport designator
Station Type Date Time Source
KINL METAR 2019/08/18 09:55 UTC NOAA

KINL 180955Z AUTO 29003KT 10SM OVC037 15/13 A2967 RMK AO2 RAB00E55 SLP047 P0001 T01500133


Station Type Date Time Source
KINL Decoded METAR 2019/08/18 09:55 UTC NOAA

Station name not available
Aug 18, 2019 - 05:55 AM EDT / 2019.08.18 0955 UTC
Wind: from the WNW (290 degrees) at 3 MPH (3 KT):0
Visibility: 10 mile(s):0
Sky conditions: overcast
Precipitation last hour: 0.01 inches
Temperature: 59.0 F (15.0 C)
Dew Point: 55.9 F (13.3 C)
Relative Humidity: 89%
Pressure (altimeter): 29.67 in. Hg (1004 hPa)
ob: KINL 180955Z AUTO 29003KT 10SM OVC037 15/13 A2967 RMK AO2 RAB00E55 SLP047 P0001 T01500133
cycle: 10

Station Type Date Time Source
KINL TAF 2019/08/18 10:45 UTC NOAA

TAF
AMD KINL 180941Z 1810/1906 30008KT 6SM BR BKN015 OVC030
TEMPO 1810/1812 5SM -RA BR SCT005 OVC030
FM181200 30008KT 6SM BR OVC035
FM181400 29005KT P6SM BKN120
FM181700 27008G18KT P6SM FEW250

Example: see airport list